UAE708 FMMI-FSIA
Flight info
| Callsign | UAE708 |
|---|---|
| Flight time | 2h 8m |
| Altitude | 39000 |
| Route | SEMEM1E GATLA UL441 MIROV/N0483F400 UL441 NORSI/N0483F390 DCT IMPOX IMPOX1E |
| Aircraft | A359/H-SDE2E3GHIJ3J4J5LM1ORWXY/LB1D1 |
Departure
| Time | 2026-04-27 16:56 |
|---|---|
| Airport | Ivato International Airport (FMMI) |
Arrival
| Time | 2026-04-27 19:05 |
|---|---|
| Airport | Seychelles International Airport (FSIA) |
| Time | Latitude | Longitude | Altitude | Speed | Heading |
|---|---|---|---|---|---|
| 2026-04-27 16:16 | -18.79995 | 47.48000 | 4172 ft | 0 kts | 188° |
| 2026-04-27 16:42 | -18.79973 | 47.48003 | 4172 ft | 4 kts | 183° |
| 2026-04-27 16:43 | -18.79946 | 47.48003 | 4172 ft | 4 kts | 177° |
| 2026-04-27 16:43 | -18.79919 | 47.48001 | 4172 ft | 4 kts | 181° |
| 2026-04-27 16:43 | -18.79898 | 47.48005 | 4172 ft | 4 kts | 243° |
| 2026-04-27 16:43 | -18.79896 | 47.48008 | 4172 ft | 0 kts | 279° |
| 2026-04-27 16:47 | -18.79894 | 47.47996 | 4172 ft | 1 kts | 277° |
| 2026-04-27 16:47 | -18.79894 | 47.47992 | 4172 ft | 0 kts | 278° |
| 2026-04-27 16:49 | -18.79893 | 47.47987 | 4172 ft | 2 kts | 278° |
| 2026-04-27 16:49 | -18.79887 | 47.47949 | 4172 ft | 10 kts | 278° |
| 2026-04-27 16:49 | -18.79867 | 47.47848 | 4172 ft | 17 kts | 290° |
| 2026-04-27 16:50 | -18.79836 | 47.47735 | 4172 ft | 16 kts | 282° |
| 2026-04-27 16:50 | -18.79813 | 47.47636 | 4172 ft | 12 kts | 297° |
| 2026-04-27 16:50 | -18.79749 | 47.47601 | 4171 ft | 10 kts | 0° |
| 2026-04-27 16:50 | -18.79684 | 47.47596 | 4170 ft | 9 kts | 340° |
| 2026-04-27 16:51 | -18.79646 | 47.47550 | 4170 ft | 9 kts | 291° |
| 2026-04-27 16:51 | -18.79631 | 47.47480 | 4169 ft | 10 kts | 278° |
| 2026-04-27 16:51 | -18.79619 | 47.47399 | 4168 ft | 12 kts | 279° |
| 2026-04-27 16:51 | -18.79605 | 47.47308 | 4168 ft | 13 kts | 280° |
| 2026-04-27 16:52 | -18.79591 | 47.47211 | 4167 ft | 14 kts | 279° |
| 2026-04-27 16:52 | -18.79575 | 47.47106 | 4167 ft | 15 kts | 279° |
| 2026-04-27 16:52 | -18.79564 | 47.47033 | 4166 ft | 15 kts | 278° |
| 2026-04-27 16:52 | -18.79541 | 47.46883 | 4167 ft | 16 kts | 279° |
| 2026-04-27 16:53 | -18.79524 | 47.46768 | 4168 ft | 16 kts | 279° |
| 2026-04-27 16:53 | -18.79506 | 47.46648 | 4167 ft | 17 kts | 279° |
| 2026-04-27 16:53 | -18.79493 | 47.46563 | 4167 ft | 18 kts | 279° |
| 2026-04-27 16:53 | -18.79455 | 47.46484 | 4168 ft | 8 kts | 271° |
| 2026-04-27 16:54 | -18.79470 | 47.46473 | 4168 ft | 0 kts | 190° |
| 2026-04-27 16:54 | -18.79471 | 47.46473 | 4168 ft | 0 kts | 184° |
| 2026-04-27 16:54 | -18.79475 | 47.46475 | 4168 ft | 1 kts | 168° |
| 2026-04-27 16:55 | -18.79482 | 47.46486 | 4167 ft | 2 kts | 117° |
| 2026-04-27 16:55 | -18.79484 | 47.46507 | 4167 ft | 0 kts | 98° |
| 2026-04-27 16:55 | -18.79485 | 47.46511 | 4167 ft | 9 kts | 98° |
| 2026-04-27 16:56 | -18.79534 | 47.46844 | 4168 ft | 82 kts | 99° |
| 2026-04-27 16:56 | -18.79658 | 47.47666 | 4170 ft | 145 kts | 99° |
| 2026-04-27 16:56 | -18.79844 | 47.48843 | 4602 ft | 164 kts | 100° |
| 2026-04-27 16:56 | -18.80043 | 47.50009 | 5384 ft | 165 kts | 100° |
| 2026-04-27 16:57 | -18.80272 | 47.51233 | 5828 ft | 175 kts | 101° |
| 2026-04-27 16:57 | -18.80503 | 47.52557 | 6125 ft | 191 kts | 99° |
| 2026-04-27 16:57 | -18.80537 | 47.53988 | 6518 ft | 200 kts | 78° |
| 2026-04-27 16:57 | -18.79816 | 47.55251 | 6901 ft | 208 kts | 38° |
| 2026-04-27 16:58 | -18.78499 | 47.55944 | 7298 ft | 219 kts | 20° |
| 2026-04-27 16:58 | -18.77031 | 47.56536 | 7634 ft | 238 kts | 20° |
| 2026-04-27 16:58 | -18.75454 | 47.57274 | 8041 ft | 255 kts | 26° |
| 2026-04-27 16:58 | -18.73827 | 47.58168 | 8524 ft | 270 kts | 27° |
| 2026-04-27 16:59 | -18.72122 | 47.59113 | 9061 ft | 283 kts | 26° |
| 2026-04-27 16:59 | -18.70320 | 47.60057 | 9602 ft | 296 kts | 25° |
| 2026-04-27 16:59 | -18.68461 | 47.60990 | 10258 ft | 301 kts | 25° |
| 2026-04-27 16:59 | -18.66516 | 47.61971 | 10665 ft | 318 kts | 25° |
| 2026-04-27 17:00 | -18.63029 | 47.63760 | 11233 ft | 346 kts | 26° |
| 2026-04-27 17:00 | -18.60098 | 47.65281 | 11890 ft | 357 kts | 27° |
| 2026-04-27 17:00 | -18.57860 | 47.66445 | 12590 ft | 359 kts | 27° |
| 2026-04-27 17:01 | -18.55641 | 47.67599 | 13281 ft | 360 kts | 27° |
| 2026-04-27 17:01 | -18.53381 | 47.68774 | 13921 ft | 363 kts | 28° |
| 2026-04-27 17:01 | -18.51102 | 47.69960 | 14419 ft | 368 kts | 27° |
| 2026-04-27 17:01 | -18.48785 | 47.71167 | 14841 ft | 374 kts | 27° |
| 2026-04-27 17:02 | -18.46426 | 47.72394 | 15306 ft | 379 kts | 26° |
| 2026-04-27 17:02 | -18.44058 | 47.73649 | 15769 ft | 384 kts | 28° |
| 2026-04-27 17:02 | -18.41719 | 47.75050 | 16218 ft | 389 kts | 30° |
| 2026-04-27 17:02 | -18.39400 | 47.76480 | 16690 ft | 393 kts | 29° |
| 2026-04-27 17:03 | -18.37015 | 47.77938 | 17187 ft | 397 kts | 29° |
| 2026-04-27 17:03 | -18.34611 | 47.79397 | 17692 ft | 400 kts | 28° |
| 2026-04-27 17:03 | -18.32182 | 47.80864 | 18192 ft | 404 kts | 28° |
| 2026-04-27 17:03 | -18.29730 | 47.82341 | 18644 ft | 407 kts | 28° |
| 2026-04-27 17:04 | -18.27260 | 47.83825 | 19074 ft | 410 kts | 28° |
| 2026-04-27 17:04 | -18.24776 | 47.85317 | 19532 ft | 412 kts | 28° |
| 2026-04-27 17:04 | -18.22277 | 47.86816 | 20007 ft | 415 kts | 28° |
| 2026-04-27 17:04 | -18.19788 | 47.88309 | 20500 ft | 417 kts | 27° |
| 2026-04-27 17:05 | -18.17260 | 47.89825 | 20995 ft | 420 kts | 27° |
| 2026-04-27 17:05 | -18.14713 | 47.91352 | 21496 ft | 423 kts | 27° |
| 2026-04-27 17:05 | -18.12151 | 47.92887 | 22004 ft | 425 kts | 27° |
| 2026-04-27 17:05 | -18.09567 | 47.94434 | 22501 ft | 428 kts | 27° |
| 2026-04-27 17:06 | -18.06970 | 47.95989 | 23031 ft | 430 kts | 27° |
| 2026-04-27 17:06 | -18.04360 | 47.97550 | 23538 ft | 432 kts | 27° |
| 2026-04-27 17:06 | -18.01734 | 47.99120 | 23979 ft | 436 kts | 27° |
| 2026-04-27 17:06 | -17.99111 | 48.00688 | 24300 ft | 442 kts | 27° |
| 2026-04-27 17:07 | -17.96384 | 48.02318 | 24662 ft | 447 kts | 27° |
| 2026-04-27 17:07 | -17.93698 | 48.03924 | 25024 ft | 451 kts | 28° |
| 2026-04-27 17:07 | -17.90957 | 48.05561 | 25370 ft | 456 kts | 28° |
| 2026-04-27 17:07 | -17.88184 | 48.07217 | 25740 ft | 461 kts | 28° |
| 2026-04-27 17:08 | -17.85381 | 48.08892 | 26104 ft | 465 kts | 28° |
| 2026-04-27 17:08 | -17.82551 | 48.10580 | 26463 ft | 469 kts | 29° |
| 2026-04-27 17:08 | -17.79692 | 48.12286 | 26834 ft | 474 kts | 29° |
| 2026-04-27 17:08 | -17.76847 | 48.13983 | 27183 ft | 478 kts | 29° |
| 2026-04-27 17:09 | -17.73941 | 48.15715 | 27536 ft | 482 kts | 30° |
| 2026-04-27 17:09 | -17.71009 | 48.17462 | 27884 ft | 486 kts | 30° |
| 2026-04-27 17:09 | -17.68047 | 48.19227 | 28230 ft | 491 kts | 30° |
| 2026-04-27 17:09 | -17.65054 | 48.21009 | 28577 ft | 495 kts | 30° |
| 2026-04-27 17:10 | -17.62083 | 48.22777 | 28941 ft | 498 kts | 30° |
| 2026-04-27 17:10 | -17.59059 | 48.24576 | 29312 ft | 501 kts | 30° |
| 2026-04-27 17:10 | -17.56004 | 48.26393 | 29623 ft | 505 kts | 30° |
| 2026-04-27 17:10 | -17.52921 | 48.28225 | 29941 ft | 509 kts | 31° |
| 2026-04-27 17:11 | -17.49822 | 48.30067 | 30214 ft | 513 kts | 31° |
| 2026-04-27 17:11 | -17.43609 | 48.33757 | 30815 ft | 518 kts | 31° |
| 2026-04-27 17:11 | -17.40456 | 48.35629 | 31106 ft | 520 kts | 31° |
| 2026-04-27 17:12 | -17.34157 | 48.39365 | 31698 ft | 525 kts | 31° |
| 2026-04-27 17:12 | -17.30968 | 48.41255 | 31972 ft | 527 kts | 31° |
| 2026-04-27 17:12 | -17.27750 | 48.43162 | 32246 ft | 529 kts | 31° |
| 2026-04-27 17:13 | -17.24536 | 48.45066 | 32509 ft | 532 kts | 31° |
| 2026-04-27 17:13 | -17.21312 | 48.46974 | 32783 ft | 534 kts | 31° |
| 2026-04-27 17:13 | -17.18077 | 48.48889 | 33032 ft | 536 kts | 31° |
| 2026-04-27 17:13 | -17.14855 | 48.50795 | 33299 ft | 537 kts | 31° |
| 2026-04-27 17:14 | -17.11583 | 48.52730 | 33531 ft | 540 kts | 31° |
| 2026-04-27 17:14 | -17.08296 | 48.54673 | 33765 ft | 542 kts | 31° |
| 2026-04-27 17:14 | -17.05042 | 48.56595 | 33976 ft | 544 kts | 31° |
| 2026-04-27 17:14 | -17.01734 | 48.58550 | 34155 ft | 546 kts | 31° |
| 2026-04-27 17:15 | -16.98404 | 48.60515 | 34386 ft | 546 kts | 31° |
| 2026-04-27 17:15 | -16.95133 | 48.62446 | 34663 ft | 545 kts | 31° |
| 2026-04-27 17:15 | -16.91827 | 48.64395 | 34997 ft | 543 kts | 31° |
| 2026-04-27 17:15 | -16.88530 | 48.66339 | 35280 ft | 543 kts | 31° |
| 2026-04-27 17:16 | -16.85235 | 48.68281 | 35523 ft | 542 kts | 31° |
| 2026-04-27 17:16 | -16.81982 | 48.70198 | 35787 ft | 542 kts | 31° |
| 2026-04-27 17:16 | -16.78696 | 48.72134 | 36035 ft | 542 kts | 31° |
| 2026-04-27 17:16 | -16.75400 | 48.74074 | 36270 ft | 542 kts | 31° |
| 2026-04-27 17:17 | -16.72114 | 48.76009 | 36503 ft | 542 kts | 31° |
| 2026-04-27 17:17 | -16.68825 | 48.77943 | 36808 ft | 540 kts | 31° |
| 2026-04-27 17:17 | -16.65548 | 48.79870 | 37051 ft | 540 kts | 31° |
| 2026-04-27 17:18 | -16.59029 | 48.83706 | 37472 ft | 540 kts | 31° |
| 2026-04-27 17:18 | -16.55749 | 48.85634 | 37661 ft | 540 kts | 31° |
| 2026-04-27 17:18 | -16.52470 | 48.87558 | 37881 ft | 539 kts | 31° |
| 2026-04-27 17:18 | -16.49194 | 48.89479 | 38101 ft | 539 kts | 31° |
| 2026-04-27 17:19 | -16.45965 | 48.91371 | 38288 ft | 539 kts | 31° |
| 2026-04-27 17:19 | -16.42692 | 48.93289 | 38500 ft | 538 kts | 31° |
| 2026-04-27 17:19 | -16.39423 | 48.95204 | 38656 ft | 538 kts | 31° |
| 2026-04-27 17:19 | -16.36151 | 48.97121 | 38822 ft | 538 kts | 31° |
| 2026-04-27 17:20 | -16.32885 | 48.99033 | 38956 ft | 538 kts | 31° |
| 2026-04-27 17:20 | -16.29612 | 49.00950 | 38981 ft | 538 kts | 31° |
| 2026-04-27 17:20 | -16.23124 | 49.04746 | 38977 ft | 537 kts | 31° |
| 2026-04-27 17:21 | -16.16603 | 49.08558 | 38990 ft | 536 kts | 31° |
| 2026-04-27 17:21 | -16.10146 | 49.12331 | 38981 ft | 536 kts | 31° |
| 2026-04-27 17:22 | -16.03634 | 49.16133 | 38962 ft | 536 kts | 31° |
| 2026-04-27 17:22 | -15.97141 | 49.19946 | 38980 ft | 535 kts | 31° |
| 2026-04-27 17:23 | -15.90679 | 49.23781 | 38981 ft | 534 kts | 31° |
| 2026-04-27 17:23 | -15.84244 | 49.27598 | 38985 ft | 534 kts | 31° |
| 2026-04-27 17:24 | -15.77770 | 49.31430 | 38985 ft | 534 kts | 31° |
| 2026-04-27 17:24 | -15.71360 | 49.35217 | 38981 ft | 532 kts | 31° |
| 2026-04-27 17:25 | -15.64902 | 49.39030 | 38985 ft | 532 kts | 31° |
| 2026-04-27 17:25 | -15.58491 | 49.42811 | 38988 ft | 532 kts | 31° |
| 2026-04-27 17:26 | -15.52049 | 49.46610 | 38978 ft | 531 kts | 31° |
| 2026-04-27 17:26 | -15.45621 | 49.50397 | 38979 ft | 530 kts | 31° |
| 2026-04-27 17:27 | -15.39195 | 49.54179 | 38976 ft | 530 kts | 30° |
| 2026-04-27 17:27 | -15.32817 | 49.57932 | 38975 ft | 530 kts | 30° |
| 2026-04-27 17:28 | -15.26428 | 49.61688 | 38973 ft | 528 kts | 30° |
| 2026-04-27 17:29 | -15.16825 | 49.67330 | 38978 ft | 527 kts | 30° |
| 2026-04-27 17:29 | -15.10473 | 49.71057 | 38974 ft | 527 kts | 30° |
| 2026-04-27 17:30 | -15.04072 | 49.74811 | 38982 ft | 527 kts | 29° |
| 2026-04-27 17:30 | -14.94505 | 49.80344 | 38969 ft | 526 kts | 28° |
| 2026-04-27 17:31 | -14.88046 | 49.83954 | 38965 ft | 526 kts | 28° |
| 2026-04-27 17:31 | -14.81645 | 49.87533 | 38958 ft | 525 kts | 28° |
| 2026-04-27 17:32 | -14.72002 | 49.92949 | 38942 ft | 524 kts | 28° |
| 2026-04-27 17:33 | -14.65623 | 49.96537 | 38945 ft | 524 kts | 28° |
| 2026-04-27 17:33 | -14.59211 | 50.00141 | 38926 ft | 524 kts | 27° |
| 2026-04-27 17:34 | -14.52799 | 50.03741 | 38930 ft | 523 kts | 27° |
| 2026-04-27 17:34 | -14.46426 | 50.07316 | 38919 ft | 523 kts | 27° |
| 2026-04-27 17:35 | -14.40028 | 50.10904 | 38923 ft | 523 kts | 27° |
| 2026-04-27 17:35 | -14.33622 | 50.14493 | 38917 ft | 523 kts | 27° |
| 2026-04-27 17:36 | -14.27267 | 50.18052 | 38918 ft | 522 kts | 27° |
| 2026-04-27 17:36 | -14.20908 | 50.21693 | 38917 ft | 522 kts | 28° |
| 2026-04-27 17:37 | -14.14614 | 50.25348 | 38911 ft | 522 kts | 28° |
| 2026-04-27 17:37 | -14.08286 | 50.29013 | 38911 ft | 522 kts | 28° |
| 2026-04-27 17:38 | -14.01933 | 50.32678 | 38911 ft | 522 kts | 28° |
| 2026-04-27 17:38 | -13.95620 | 50.36314 | 38908 ft | 522 kts | 28° |
| 2026-04-27 17:39 | -13.89270 | 50.39968 | 38907 ft | 522 kts | 28° |
| 2026-04-27 17:39 | -13.83993 | 50.43004 | 38905 ft | 521 kts | 27° |
| 2026-04-27 17:40 | -13.76630 | 50.47237 | 38908 ft | 520 kts | 27° |
| 2026-04-27 17:40 | -13.70297 | 50.50875 | 38908 ft | 520 kts | 27° |
| 2026-04-27 17:41 | -13.65035 | 50.53897 | 38906 ft | 520 kts | 27° |
| 2026-04-27 17:41 | -13.58695 | 50.57536 | 38905 ft | 520 kts | 27° |
| 2026-04-27 17:42 | -13.52408 | 50.61139 | 38904 ft | 519 kts | 27° |
| 2026-04-27 17:42 | -13.46099 | 50.64751 | 38905 ft | 519 kts | 27° |
| 2026-04-27 17:43 | -13.39793 | 50.68360 | 38904 ft | 518 kts | 27° |
| 2026-04-27 17:43 | -13.33521 | 50.71948 | 38901 ft | 518 kts | 27° |
| 2026-04-27 17:44 | -13.27202 | 50.75561 | 38906 ft | 517 kts | 27° |
| 2026-04-27 17:44 | -13.20948 | 50.79135 | 38906 ft | 517 kts | 27° |
| 2026-04-27 17:45 | -13.14629 | 50.82743 | 38906 ft | 517 kts | 27° |
| 2026-04-27 17:45 | -13.08366 | 50.86317 | 38902 ft | 517 kts | 27° |
| 2026-04-27 17:46 | -13.02058 | 50.89915 | 38908 ft | 517 kts | 27° |
| 2026-04-27 17:46 | -12.95757 | 50.93507 | 38906 ft | 517 kts | 27° |
| 2026-04-27 17:47 | -12.89495 | 50.97074 | 38903 ft | 517 kts | 27° |
| 2026-04-27 17:47 | -12.83227 | 51.00643 | 38902 ft | 517 kts | 26° |
| 2026-04-27 17:48 | -12.76929 | 51.04227 | 38904 ft | 516 kts | 26° |
| 2026-04-27 17:48 | -12.70639 | 51.07804 | 38904 ft | 516 kts | 26° |
| 2026-04-27 17:49 | -12.64372 | 51.11366 | 38904 ft | 516 kts | 26° |
| 2026-04-27 17:49 | -12.58114 | 51.14921 | 38891 ft | 516 kts | 26° |
| 2026-04-27 17:50 | -12.51834 | 51.18488 | 38904 ft | 516 kts | 26° |
| 2026-04-27 17:50 | -12.42395 | 51.23842 | 38904 ft | 516 kts | 26° |
| 2026-04-27 17:51 | -12.36112 | 51.27405 | 38902 ft | 516 kts | 26° |
| 2026-04-27 17:51 | -12.29853 | 51.30951 | 38901 ft | 515 kts | 26° |
| 2026-04-27 17:52 | -12.23571 | 51.34510 | 38900 ft | 514 kts | 26° |
| 2026-04-27 17:52 | -12.17348 | 51.38032 | 38903 ft | 514 kts | 26° |
| 2026-04-27 17:53 | -12.11085 | 51.41576 | 38903 ft | 514 kts | 26° |
| 2026-04-27 17:53 | -12.04821 | 51.45125 | 38898 ft | 513 kts | 25° |
| 2026-04-27 17:54 | -11.98595 | 51.48645 | 38903 ft | 511 kts | 25° |
| 2026-04-27 17:54 | -11.92352 | 51.52172 | 38903 ft | 511 kts | 25° |
| 2026-04-27 17:55 | -11.86149 | 51.55676 | 38903 ft | 511 kts | 25° |
| 2026-04-27 17:55 | -11.79958 | 51.59172 | 38902 ft | 510 kts | 25° |
| 2026-04-27 17:56 | -11.73750 | 51.62677 | 38902 ft | 507 kts | 25° |
| 2026-04-27 17:56 | -11.67572 | 51.66163 | 38903 ft | 507 kts | 25° |
| 2026-04-27 17:57 | -11.61402 | 51.69651 | 38903 ft | 506 kts | 25° |
| 2026-04-27 17:57 | -11.55258 | 51.73117 | 38903 ft | 506 kts | 25° |
| 2026-04-27 17:58 | -11.49072 | 51.76606 | 38903 ft | 507 kts | 25° |
| 2026-04-27 17:58 | -11.42929 | 51.80070 | 38903 ft | 507 kts | 25° |
| 2026-04-27 17:59 | -11.36750 | 51.83553 | 38903 ft | 506 kts | 25° |
| 2026-04-27 17:59 | -11.30587 | 51.87026 | 38903 ft | 505 kts | 25° |
| 2026-04-27 18:00 | -11.24467 | 51.90473 | 38904 ft | 504 kts | 25° |
| 2026-04-27 18:00 | -11.18352 | 51.93916 | 38905 ft | 500 kts | 25° |
| 2026-04-27 18:01 | -11.12254 | 51.97347 | 38903 ft | 500 kts | 25° |
| 2026-04-27 18:01 | -11.06198 | 52.00752 | 38900 ft | 500 kts | 25° |
| 2026-04-27 18:02 | -11.00100 | 52.04178 | 38897 ft | 500 kts | 25° |
| 2026-04-27 18:02 | -10.94014 | 52.07598 | 38903 ft | 499 kts | 25° |
| 2026-04-27 18:03 | -10.87973 | 52.10990 | 38906 ft | 498 kts | 25° |
| 2026-04-27 18:03 | -10.81890 | 52.14404 | 38897 ft | 498 kts | 25° |
| 2026-04-27 18:04 | -10.75840 | 52.17798 | 38896 ft | 498 kts | 25° |
| 2026-04-27 18:04 | -10.69744 | 52.21216 | 38896 ft | 498 kts | 26° |
| 2026-04-27 18:05 | -10.63713 | 52.24597 | 38897 ft | 498 kts | 26° |
| 2026-04-27 18:05 | -10.57629 | 52.28006 | 38897 ft | 498 kts | 26° |
| 2026-04-27 18:06 | -10.51564 | 52.31402 | 38897 ft | 497 kts | 26° |
| 2026-04-27 18:06 | -10.45499 | 52.34797 | 38896 ft | 497 kts | 26° |
| 2026-04-27 18:07 | -10.39470 | 52.38170 | 38897 ft | 496 kts | 26° |
| 2026-04-27 18:07 | -10.33414 | 52.41557 | 38897 ft | 496 kts | 26° |
| 2026-04-27 18:08 | -10.27359 | 52.44942 | 38898 ft | 496 kts | 26° |
| 2026-04-27 18:08 | -10.21345 | 52.48302 | 38897 ft | 496 kts | 26° |
| 2026-04-27 18:09 | -10.15299 | 52.51678 | 38895 ft | 495 kts | 26° |
| 2026-04-27 18:09 | -10.09244 | 52.55059 | 38895 ft | 495 kts | 26° |
| 2026-04-27 18:10 | -10.03237 | 52.58411 | 38895 ft | 495 kts | 26° |
| 2026-04-27 18:10 | -9.97192 | 52.61785 | 38895 ft | 495 kts | 26° |
| 2026-04-27 18:11 | -9.91191 | 52.65133 | 38893 ft | 494 kts | 26° |
| 2026-04-27 18:11 | -9.85160 | 52.68495 | 38896 ft | 494 kts | 26° |
| 2026-04-27 18:12 | -9.79123 | 52.71860 | 38894 ft | 494 kts | 26° |
| 2026-04-27 18:12 | -9.73135 | 52.75198 | 38895 ft | 494 kts | 26° |
| 2026-04-27 18:13 | -9.67104 | 52.78556 | 38892 ft | 494 kts | 26° |
| 2026-04-27 18:13 | -9.61077 | 52.81912 | 38893 ft | 493 kts | 27° |
| 2026-04-27 18:14 | -9.55102 | 52.85238 | 38892 ft | 492 kts | 27° |
| 2026-04-27 18:14 | -9.49073 | 52.88592 | 38891 ft | 492 kts | 27° |
| 2026-04-27 18:15 | -9.43087 | 52.91921 | 38892 ft | 492 kts | 27° |
| 2026-04-27 18:15 | -9.37071 | 52.95264 | 38891 ft | 492 kts | 27° |
| 2026-04-27 18:16 | -9.31063 | 52.98602 | 38893 ft | 491 kts | 27° |
| 2026-04-27 18:16 | -9.25104 | 53.01912 | 38894 ft | 491 kts | 27° |
| 2026-04-27 18:17 | -9.19105 | 53.05243 | 38891 ft | 490 kts | 27° |
| 2026-04-27 18:17 | -9.13148 | 53.08549 | 38891 ft | 490 kts | 27° |
| 2026-04-27 18:18 | -9.07139 | 53.11883 | 38886 ft | 490 kts | 27° |
| 2026-04-27 18:18 | -9.01181 | 53.15187 | 38887 ft | 490 kts | 27° |
| 2026-04-27 18:19 | -8.95189 | 53.18508 | 38886 ft | 490 kts | 27° |
| 2026-04-27 18:19 | -8.89195 | 53.21830 | 38886 ft | 490 kts | 27° |
| 2026-04-27 18:20 | -8.83242 | 53.25128 | 38902 ft | 490 kts | 27° |
| 2026-04-27 18:20 | -8.77245 | 53.28448 | 38892 ft | 490 kts | 27° |
| 2026-04-27 18:21 | -8.71284 | 53.31748 | 38891 ft | 490 kts | 27° |
| 2026-04-27 18:21 | -8.65322 | 53.35047 | 38892 ft | 490 kts | 27° |
| 2026-04-27 18:22 | -8.59325 | 53.38364 | 38890 ft | 490 kts | 27° |
| 2026-04-27 18:22 | -8.53333 | 53.41677 | 38889 ft | 490 kts | 27° |
| 2026-04-27 18:23 | -8.47377 | 53.44969 | 38891 ft | 490 kts | 27° |
| 2026-04-27 18:23 | -8.41372 | 53.48287 | 38890 ft | 490 kts | 27° |
| 2026-04-27 18:24 | -8.35407 | 53.51582 | 38891 ft | 490 kts | 27° |
| 2026-04-27 18:24 | -8.29411 | 53.54892 | 38888 ft | 490 kts | 27° |
| 2026-04-27 18:25 | -8.23415 | 53.58201 | 38883 ft | 490 kts | 27° |
| 2026-04-27 18:25 | -8.17464 | 53.61485 | 38892 ft | 490 kts | 27° |
| 2026-04-27 18:26 | -8.11479 | 53.64786 | 38900 ft | 490 kts | 27° |
| 2026-04-27 18:26 | -8.05484 | 53.68091 | 38883 ft | 490 kts | 27° |
| 2026-04-27 18:27 | -7.99501 | 53.71389 | 38889 ft | 490 kts | 27° |
| 2026-04-27 18:27 | -7.93555 | 53.74665 | 38900 ft | 490 kts | 27° |
| 2026-04-27 18:28 | -7.87568 | 53.77962 | 38900 ft | 490 kts | 27° |
| 2026-04-27 18:28 | -7.82587 | 53.80706 | 38893 ft | 490 kts | 27° |
| 2026-04-27 18:29 | -7.76587 | 53.84008 | 38890 ft | 490 kts | 27° |
| 2026-04-27 18:29 | -7.70627 | 53.87288 | 38892 ft | 490 kts | 27° |
| 2026-04-27 18:30 | -7.64630 | 53.90587 | 38894 ft | 490 kts | 27° |
| 2026-04-27 18:30 | -7.58630 | 53.93887 | 38890 ft | 490 kts | 27° |
| 2026-04-27 18:31 | -7.52671 | 53.97163 | 38890 ft | 490 kts | 27° |
| 2026-04-27 18:31 | -7.46677 | 54.00457 | 38895 ft | 490 kts | 27° |
| 2026-04-27 18:32 | -7.40673 | 54.03756 | 38896 ft | 490 kts | 27° |
| 2026-04-27 18:32 | -7.34717 | 54.07027 | 38889 ft | 490 kts | 27° |
| 2026-04-27 18:33 | -7.28719 | 54.10320 | 38898 ft | 490 kts | 28° |
| 2026-04-27 18:33 | -7.22757 | 54.13588 | 38895 ft | 490 kts | 27° |
| 2026-04-27 18:34 | -7.16735 | 54.16847 | 38895 ft | 490 kts | 27° |
| 2026-04-27 18:34 | -7.10717 | 54.20105 | 38888 ft | 490 kts | 27° |
| 2026-04-27 18:35 | -7.04734 | 54.23346 | 38893 ft | 490 kts | 27° |
| 2026-04-27 18:35 | -6.98706 | 54.26612 | 38895 ft | 490 kts | 27° |
| 2026-04-27 18:36 | -6.92717 | 54.29856 | 38895 ft | 491 kts | 27° |
| 2026-04-27 18:36 | -6.86697 | 54.33116 | 38890 ft | 491 kts | 28° |
| 2026-04-27 18:37 | -6.80712 | 54.36355 | 38892 ft | 490 kts | 28° |
| 2026-04-27 18:37 | -6.74682 | 54.39618 | 38894 ft | 491 kts | 28° |
| 2026-04-27 18:38 | -6.71667 | 54.41250 | 38780 ft | 491 kts | 28° |
| 2026-04-27 18:38 | -6.68702 | 54.42854 | 38557 ft | 489 kts | 28° |
| 2026-04-27 18:38 | -6.65692 | 54.44482 | 38293 ft | 490 kts | 28° |
| 2026-04-27 18:38 | -6.62682 | 54.46110 | 38028 ft | 491 kts | 28° |
| 2026-04-27 18:39 | -6.59667 | 54.47741 | 37751 ft | 491 kts | 27° |
| 2026-04-27 18:39 | -6.56669 | 54.49362 | 37258 ft | 487 kts | 27° |
| 2026-04-27 18:39 | -6.53685 | 54.50975 | 36648 ft | 486 kts | 28° |
| 2026-04-27 18:39 | -6.50705 | 54.52586 | 36005 ft | 486 kts | 28° |
| 2026-04-27 18:40 | -6.47764 | 54.54175 | 35354 ft | 486 kts | 28° |
| 2026-04-27 18:40 | -6.44775 | 54.55790 | 34722 ft | 487 kts | 28° |
| 2026-04-27 18:40 | -6.41790 | 54.57403 | 34221 ft | 484 kts | 28° |
| 2026-04-27 18:40 | -6.38831 | 54.59002 | 33693 ft | 482 kts | 28° |
| 2026-04-27 18:41 | -6.35881 | 54.60595 | 33157 ft | 479 kts | 28° |
| 2026-04-27 18:41 | -6.32988 | 54.62158 | 32648 ft | 475 kts | 28° |
| 2026-04-27 18:41 | -6.30087 | 54.63724 | 32156 ft | 472 kts | 28° |
| 2026-04-27 18:41 | -6.27196 | 54.65285 | 31659 ft | 469 kts | 28° |
| 2026-04-27 18:42 | -6.24321 | 54.66837 | 31164 ft | 466 kts | 28° |
| 2026-04-27 18:42 | -6.22427 | 54.67860 | 30844 ft | 465 kts | 28° |
| 2026-04-27 18:42 | -6.18629 | 54.69910 | 30195 ft | 461 kts | 28° |
| 2026-04-27 18:42 | -6.15860 | 54.71404 | 29684 ft | 459 kts | 28° |
| 2026-04-27 18:43 | -6.13087 | 54.72901 | 29189 ft | 455 kts | 28° |
| 2026-04-27 18:43 | -6.10306 | 54.74402 | 28702 ft | 451 kts | 28° |
| 2026-04-27 18:43 | -6.07549 | 54.75889 | 28230 ft | 447 kts | 28° |
| 2026-04-27 18:43 | -6.04812 | 54.77366 | 27758 ft | 444 kts | 28° |
| 2026-04-27 18:44 | -6.02101 | 54.78829 | 27288 ft | 440 kts | 28° |
| 2026-04-27 18:44 | -5.99413 | 54.80278 | 26823 ft | 437 kts | 28° |
| 2026-04-27 18:44 | -5.96747 | 54.81716 | 26356 ft | 433 kts | 28° |
| 2026-04-27 18:44 | -5.94096 | 54.83146 | 25893 ft | 430 kts | 28° |
| 2026-04-27 18:45 | -5.91499 | 54.84546 | 25420 ft | 428 kts | 28° |
| 2026-04-27 18:45 | -5.88879 | 54.85959 | 24979 ft | 425 kts | 28° |
| 2026-04-27 18:45 | -5.86278 | 54.87361 | 24503 ft | 422 kts | 27° |
| 2026-04-27 18:45 | -5.83691 | 54.88755 | 24034 ft | 420 kts | 28° |
| 2026-04-27 18:46 | -5.81123 | 54.90139 | 23561 ft | 417 kts | 27° |
| 2026-04-27 18:46 | -5.78571 | 54.91514 | 23045 ft | 415 kts | 27° |
| 2026-04-27 18:46 | -5.76043 | 54.92876 | 22557 ft | 410 kts | 27° |
| 2026-04-27 18:46 | -5.73561 | 54.94213 | 22109 ft | 406 kts | 27° |
| 2026-04-27 18:47 | -5.71083 | 54.95548 | 21650 ft | 402 kts | 27° |
| 2026-04-27 18:47 | -5.68630 | 54.96869 | 21188 ft | 398 kts | 27° |
| 2026-04-27 18:47 | -5.66204 | 54.98176 | 20747 ft | 394 kts | 27° |
| 2026-04-27 18:47 | -5.63800 | 54.99471 | 20291 ft | 390 kts | 27° |
| 2026-04-27 18:48 | -5.61420 | 55.00753 | 19841 ft | 387 kts | 27° |
| 2026-04-27 18:48 | -5.59055 | 55.02026 | 19398 ft | 383 kts | 28° |
| 2026-04-27 18:48 | -5.56715 | 55.03286 | 18960 ft | 380 kts | 27° |
| 2026-04-27 18:48 | -5.54394 | 55.04535 | 18519 ft | 377 kts | 27° |
| 2026-04-27 18:49 | -5.52115 | 55.05762 | 18073 ft | 375 kts | 27° |
| 2026-04-27 18:49 | -5.49824 | 55.06995 | 17593 ft | 371 kts | 27° |
| 2026-04-27 18:49 | -5.47562 | 55.08212 | 17163 ft | 367 kts | 28° |
| 2026-04-27 18:49 | -5.45329 | 55.09414 | 16742 ft | 362 kts | 28° |
| 2026-04-27 18:50 | -5.43114 | 55.10606 | 16322 ft | 358 kts | 28° |
| 2026-04-27 18:50 | -5.40924 | 55.11784 | 15890 ft | 354 kts | 28° |
| 2026-04-27 18:50 | -5.38757 | 55.12950 | 15480 ft | 351 kts | 28° |
| 2026-04-27 18:50 | -5.36641 | 55.14089 | 15085 ft | 348 kts | 28° |
| 2026-04-27 18:51 | -5.34516 | 55.15231 | 14696 ft | 345 kts | 28° |
| 2026-04-27 18:51 | -5.32408 | 55.16365 | 14271 ft | 342 kts | 28° |
| 2026-04-27 18:51 | -5.30318 | 55.17490 | 13877 ft | 339 kts | 28° |
| 2026-04-27 18:51 | -5.28240 | 55.18607 | 13448 ft | 337 kts | 28° |
| 2026-04-27 18:52 | -5.26202 | 55.19703 | 13052 ft | 335 kts | 28° |
| 2026-04-27 18:52 | -5.24151 | 55.20806 | 12644 ft | 333 kts | 28° |
| 2026-04-27 18:52 | -5.22116 | 55.21901 | 12236 ft | 331 kts | 28° |
| 2026-04-27 18:53 | -5.18078 | 55.24072 | 11464 ft | 326 kts | 28° |
| 2026-04-27 18:53 | -5.16077 | 55.25147 | 11079 ft | 325 kts | 28° |
| 2026-04-27 18:53 | -5.14096 | 55.26212 | 10789 ft | 318 kts | 28° |
| 2026-04-27 18:53 | -5.12232 | 55.27281 | 10658 ft | 306 kts | 34° |
| 2026-04-27 18:54 | -5.10757 | 55.28748 | 10519 ft | 294 kts | 56° |
| 2026-04-27 18:54 | -5.09702 | 55.30490 | 10199 ft | 290 kts | 61° |
| 2026-04-27 18:54 | -5.08739 | 55.32257 | 9873 ft | 287 kts | 62° |
| 2026-04-27 18:54 | -5.07776 | 55.34031 | 9553 ft | 294 kts | 61° |
| 2026-04-27 18:55 | -5.06783 | 55.35851 | 9232 ft | 299 kts | 61° |
| 2026-04-27 18:55 | -5.05781 | 55.37675 | 8885 ft | 298 kts | 61° |
| 2026-04-27 18:55 | -5.04793 | 55.39470 | 8575 ft | 296 kts | 61° |
| 2026-04-27 18:55 | -5.03796 | 55.41280 | 8257 ft | 296 kts | 61° |
| 2026-04-27 18:56 | -5.02802 | 55.43082 | 7947 ft | 294 kts | 61° |
| 2026-04-27 18:56 | -5.01812 | 55.44875 | 7620 ft | 292 kts | 61° |
| 2026-04-27 18:56 | -5.00840 | 55.46635 | 7311 ft | 292 kts | 61° |
| 2026-04-27 18:56 | -4.99858 | 55.48415 | 7021 ft | 290 kts | 61° |
| 2026-04-27 18:57 | -4.98878 | 55.50188 | 6771 ft | 289 kts | 61° |
| 2026-04-27 18:57 | -4.97901 | 55.51957 | 6464 ft | 288 kts | 61° |
| 2026-04-27 18:57 | -4.96929 | 55.53716 | 6159 ft | 287 kts | 61° |
| 2026-04-27 18:57 | -4.95963 | 55.55465 | 5834 ft | 286 kts | 61° |
| 2026-04-27 18:58 | -4.95009 | 55.57191 | 5514 ft | 285 kts | 61° |
| 2026-04-27 18:58 | -4.94372 | 55.58344 | 5317 ft | 284 kts | 61° |
| 2026-04-27 18:58 | -4.93092 | 55.60656 | 4960 ft | 278 kts | 60° |
| 2026-04-27 18:58 | -4.91975 | 55.62161 | 4782 ft | 267 kts | 42° |
| 2026-04-27 18:59 | -4.90417 | 55.63094 | 4598 ft | 256 kts | 19° |
| 2026-04-27 18:59 | -4.88735 | 55.63654 | 4298 ft | 252 kts | 15° |
| 2026-04-27 18:59 | -4.87063 | 55.64154 | 3997 ft | 250 kts | 15° |
| 2026-04-27 18:59 | -4.85400 | 55.64653 | 3670 ft | 248 kts | 15° |
| 2026-04-27 19:00 | -4.83765 | 55.65148 | 3466 ft | 243 kts | 15° |
| 2026-04-27 19:00 | -4.82147 | 55.65642 | 3344 ft | 243 kts | 15° |
| 2026-04-27 19:00 | -4.80568 | 55.66127 | 3238 ft | 236 kts | 15° |
| 2026-04-27 19:00 | -4.78992 | 55.66473 | 3026 ft | 229 kts | 355° |
| 2026-04-27 19:01 | -4.77530 | 55.65955 | 3000 ft | 223 kts | 324° |
| 2026-04-27 19:01 | -4.76317 | 55.65013 | 2797 ft | 217 kts | 316° |
| 2026-04-27 19:01 | -4.75424 | 55.63864 | 2531 ft | 203 kts | 297° |
| 2026-04-27 19:01 | -4.74715 | 55.62686 | 2235 ft | 192 kts | 304° |
| 2026-04-27 19:02 | -4.73931 | 55.61656 | 1998 ft | 179 kts | 303° |
| 2026-04-27 19:02 | -4.73253 | 55.60651 | 1761 ft | 169 kts | 301° |
| 2026-04-27 19:02 | -4.72611 | 55.59709 | 1541 ft | 158 kts | 303° |
| 2026-04-27 19:02 | -4.72011 | 55.58846 | 1352 ft | 149 kts | 302° |
| 2026-04-27 19:03 | -4.71440 | 55.58008 | 1140 ft | 143 kts | 302° |
| 2026-04-27 19:03 | -4.70863 | 55.57190 | 963 ft | 145 kts | 305° |
| 2026-04-27 19:03 | -4.70301 | 55.56348 | 792 ft | 143 kts | 301° |
| 2026-04-27 19:03 | -4.69941 | 55.55797 | 664 ft | 140 kts | 303° |
| 2026-04-27 19:04 | -4.69218 | 55.54764 | 431 ft | 133 kts | 303° |
| 2026-04-27 19:04 | -4.68689 | 55.54005 | 304 ft | 133 kts | 303° |
| 2026-04-27 19:04 | -4.68159 | 55.53221 | 105 ft | 140 kts | 303° |
| 2026-04-27 19:04 | -4.67614 | 55.52435 | 28 ft | 127 kts | 304° |
| 2026-04-27 19:05 | -4.67181 | 55.51805 | 28 ft | 94 kts | 304° |
| 2026-04-27 19:05 | -4.66917 | 55.51426 | 28 ft | 29 kts | 303° |
| 2026-04-27 19:05 | -4.66810 | 55.51268 | 29 ft | 26 kts | 304° |
| 2026-04-27 19:05 | -4.66727 | 55.51149 | 29 ft | 16 kts | 305° |
| 2026-04-27 19:06 | -4.66708 | 55.51057 | 27 ft | 13 kts | 237° |
| 2026-04-27 19:06 | -4.66779 | 55.51042 | 27 ft | 10 kts | 151° |
| 2026-04-27 19:06 | -4.66820 | 55.51088 | 27 ft | 8 kts | 125° |
| 2026-04-27 19:06 | -4.66852 | 55.51135 | 27 ft | 8 kts | 123° |
| 2026-04-27 19:07 | -4.66881 | 55.51176 | 27 ft | 7 kts | 129° |
| 2026-04-27 19:07 | -4.66937 | 55.51197 | 27 ft | 10 kts | 173° |
| 2026-04-27 19:07 | -4.67002 | 55.51190 | 27 ft | 8 kts | 205° |
| 2026-04-27 19:07 | -4.67021 | 55.51178 | 27 ft | 0 kts | 214° |
| 2026-04-27 19:08 | -4.67028 | 55.51173 | 27 ft | 0 kts | 214° |